Time;durP1;ratioP1;P1;durP2;ratioP2;P2;SDS_P1;SDS_P2;PMS_P1;PMS_P2;Temp;Humidity;BMP_temperature;BMP_pressure;BME280_temperature;BME280_humidity;BME280_pressure;Samples;Min_cycle;Max_cycle;Signal;HPM_P1;HPM_P2
2022/10/10 00:02:32;;;;;;;6.75;4.10;;;;;;;;;;6096865;23;20010;-74
2022/10/10 00:05:17;;;;;;;6.45;4.30;;;;;;;;;;6097050;23;20006;-75
2022/10/10 00:08:02;;;;;;;9.85;4.15;;;;;;;;;;6096017;23;20013;-74
2022/10/10 00:10:48;;;;;;;7.72;3.70;;;;;;;;;;6117670;23;20021;-72
2022/10/10 00:13:33;;;;;;;7.55;3.85;;;;;;;;;;6096154;23;20021;-74
2022/10/10 00:16:18;;;;;;;9.13;4.00;;;;;;;;;;6096932;23;20025;-76
2022/10/10 00:19:04;;;;;;;9.45;4.05;;;;;;;;;;6100933;23;20297;-74
2022/10/10 00:21:49;;;;;;;9.25;4.40;;;;;;;;;;6099633;23;20006;-77
2022/10/10 00:24:34;;;;;;;7.18;4.20;;;;;;;;;;6096220;23;20150;-75
2022/10/10 00:27:19;;;;;;;8.35;4.50;;;;;;;;;;6096516;23;20075;-76
2022/10/10 00:30:06;;;;;;;6.72;3.67;;;;;;;;;;6096356;23;20417;-76
2022/10/10 00:32:51;;;;;;;8.02;4.30;;;;;;;;;;6094711;23;20020;-81
2022/10/10 00:35:36;;;;;;;8.80;4.13;;;;;;;;;;6096874;23;20476;-80
2022/10/10 00:38:21;;;;;;;11.30;4.78;;;;;;;;;;6096986;23;20006;-79
2022/10/10 00:41:07;;;;;;;7.03;3.88;;;;;;;;;;6096630;23;20021;-81
2022/10/10 00:44:03;;;;;;;9.27;3.75;;;;;;;;;;6096387;23;20010;-81
2022/10/10 00:46:48;;;;;;;7.00;4.35;;;;;;;;;;6096688;23;20361;-83
2022/10/10 00:49:35;;;;;;;9.18;3.75;;;;;;;;;;6096755;23;20052;-76
2022/10/10 00:52:20;;;;;;;6.75;3.70;;;;;;;;;;6104021;23;20230;-81
2022/10/10 00:55:06;;;;;;;9.45;3.92;;;;;;;;;;6096965;23;20013;-81
2022/10/10 00:57:51;;;;;;;9.93;4.47;;;;;;;;;;6096940;23;20101;-79
2022/10/10 01:00:36;;;;;;;9.20;4.07;;;;;;;;;;6096771;23;20002;-79
2022/10/10 01:03:21;;;;;;;7.97;4.40;;;;;;;;;;6097042;23;20010;-79
2022/10/10 01:06:07;;;;;;;7.90;4.88;;;;;;;;;;6096887;23;20005;-69
2022/10/10 01:08:52;;;;;;;5.85;3.95;;;;;;;;;;6096448;23;20104;-76
2022/10/10 01:11:45;;;;;;;6.53;4.05;;;;;;;;;;6097479;23;20032;-76
2022/10/10 01:14:47;;;;;;;8.68;4.70;;;;;;;;;;6096566;23;20383;-78
2022/10/10 01:17:45;;;;;;;9.68;4.55;;;;;;;;;;6096207;23;20088;-75
2022/10/10 01:20:30;;;;;;;7.20;4.10;;;;;;;;;;6096817;23;20013;-76
2022/10/10 01:23:15;;;;;;;9.32;4.70;;;;;;;;;;6100536;23;20006;-76
2022/10/10 01:26:04;;;;;;;7.57;4.18;;;;;;;;;;6097608;23;20393;-74
2022/10/10 01:29:08;;;;;;;10.93;5.15;;;;;;;;;;6096034;23;20185;-71
2022/10/10 01:31:55;;;;;;;7.68;4.40;;;;;;;;;;6096149;23;20018;-74
2022/10/10 01:34:49;;;;;;;9.25;4.82;;;;;;;;;;6096021;23;20113;-71
2022/10/10 01:37:42;;;;;;;9.18;4.80;;;;;;;;;;6097315;23;20447;-71
2022/10/10 01:40:46;;;;;;;7.95;4.07;;;;;;;;;;6096884;23;20014;-72
2022/10/10 01:43:32;;;;;;;8.27;3.83;;;;;;;;;;6095850;23;20321;-72
2022/10/10 01:46:18;;;;;;;9.35;4.97;;;;;;;;;;6095224;23;20033;-74
2022/10/10 01:49:03;;;;;;;6.80;4.28;;;;;;;;;;6095968;23;20319;-72
2022/10/10 01:52:08;;;;;;;8.77;4.85;;;;;;;;;;6094994;23;20111;-73
2022/10/10 01:54:59;;;;;;;7.85;4.22;;;;;;;;;;6097982;23;20051;-72
2022/10/10 01:58:03;;;;;;;9.13;4.45;;;;;;;;;;6099707;23;20085;-72
2022/10/10 02:01:14;;;;;;;7.82;4.13;;;;;;;;;;6096513;23;20014;-72
2022/10/10 02:04:15;;;;;;;9.02;4.55;;;;;;;;;;6095736;23;20284;-76
2022/10/10 02:07:05;;;;;;;9.60;4.80;;;;;;;;;;6096326;23;19998;-80
2022/10/10 02:09:51;;;;;;;6.35;3.50;;;;;;;;;;6096989;23;20041;-79
2022/10/10 02:12:37;;;;;;;7.75;4.38;;;;;;;;;;6095374;23;20016;-81
2022/10/10 02:15:24;;;;;;;8.30;4.35;;;;;;;;;;6096968;23;20079;-81
2022/10/10 02:18:10;;;;;;;10.60;4.22;;;;;;;;;;6095989;23;20006;-80
2022/10/10 02:20:56;;;;;;;6.95;4.30;;;;;;;;;;6096172;23;20052;-75
2022/10/10 02:23:44;;;;;;;6.80;4.55;;;;;;;;;;6095752;23;20009;-70
2022/10/10 02:26:29;;;;;;;6.03;3.92;;;;;;;;;;6096004;23;20002;-72
2022/10/10 02:29:15;;;;;;;9.45;4.20;;;;;;;;;;6120946;23;20009;-69
2022/10/10 02:32:05;;;;;;;6.25;3.80;;;;;;;;;;6094038;23;20006;-68
2022/10/10 02:34:56;;;;;;;8.30;4.22;;;;;;;;;;6094229;23;20009;-69
2022/10/10 02:37:42;;;;;;;9.02;4.57;;;;;;;;;;6093680;23;20010;-69
2022/10/10 02:40:29;;;;;;;7.55;4.03;;;;;;;;;;6095407;23;20067;-74
2022/10/10 02:43:16;;;;;;;7.40;3.45;;;;;;;;;;6095468;23;20010;-74
2022/10/10 02:46:03;;;;;;;7.57;4.78;;;;;;;;;;6095968;23;20725;-74
2022/10/10 02:48:48;;;;;;;6.07;3.67;;;;;;;;;;6094759;23;20010;-75
2022/10/10 02:51:34;;;;;;;8.93;3.38;;;;;;;;;;6096255;23;20075;-75
2022/10/10 02:54:19;;;;;;;6.65;3.33;;;;;;;;;;6095484;23;20093;-76
2022/10/10 02:57:04;;;;;;;4.95;3.58;;;;;;;;;;6095932;23;20022;-70
2022/10/10 02:59:49;;;;;;;6.35;4.43;;;;;;;;;;6101166;23;20333;-75
2022/10/10 03:02:35;;;;;;;7.72;4.15;;;;;;;;;;6096108;23;20414;-74
2022/10/10 03:05:20;;;;;;;6.68;3.80;;;;;;;;;;6095234;23;20010;-73
2022/10/10 03:08:05;;;;;;;7.40;3.85;;;;;;;;;;6095222;23;20068;-74
2022/10/10 03:10:54;;;;;;;7.63;4.53;;;;;;;;;;6094209;23;20014;-74
2022/10/10 03:13:39;;;;;;;6.20;3.72;;;;;;;;;;6096122;23;20507;-74
2022/10/10 03:16:25;;;;;;;6.15;3.55;;;;;;;;;;6095007;23;20063;-73
2022/10/10 03:19:10;;;;;;;8.05;4.63;;;;;;;;;;6095211;23;20009;-73
2022/10/10 03:21:55;;;;;;;5.78;3.47;;;;;;;;;;6094468;23;20025;-74
2022/10/10 03:24:40;;;;;;;6.57;4.25;;;;;;;;;;6095424;23;20017;-75
2022/10/10 03:27:26;;;;;;;10.85;3.95;;;;;;;;;;6096135;23;20006;-74
2022/10/10 03:30:11;;;;;;;5.75;4.00;;;;;;;;;;6095638;23;20006;-73
2022/10/10 03:32:56;;;;;;;4.38;3.45;;;;;;;;;;6101240;23;20009;-74
2022/10/10 03:35:41;;;;;;;8.73;4.85;;;;;;;;;;6095244;23;20006;-73
2022/10/10 03:38:27;;;;;;;6.63;3.92;;;;;;;;;;6095634;23;20338;-72
2022/10/10 03:41:12;;;;;;;8.80;4.57;;;;;;;;;;6095075;23;20006;-73
2022/10/10 03:43:57;;;;;;;7.97;4.15;;;;;;;;;;6094287;23;20421;-75
2022/10/10 03:46:42;;;;;;;5.97;3.55;;;;;;;;;;6095295;23;20017;-73
2022/10/10 03:49:28;;;;;;;7.53;4.13;;;;;;;;;;6095974;23;20010;-72
2022/10/10 03:52:13;;;;;;;9.60;4.07;;;;;;;;;;6095704;23;20091;-82
2022/10/10 03:54:58;;;;;;;8.00;4.22;;;;;;;;;;6095606;23;20018;-73
2022/10/10 03:57:43;;;;;;;7.60;4.32;;;;;;;;;;6094491;23;20045;-75
2022/10/10 04:00:29;;;;;;;10.95;4.10;;;;;;;;;;6095480;23;20014;-72
2022/10/10 04:03:14;;;;;;;6.68;3.67;;;;;;;;;;6099777;23;20072;-73
2022/10/10 04:05:59;;;;;;;6.82;4.18;;;;;;;;;;6097160;23;20002;-73
2022/10/10 04:08:44;;;;;;;6.40;3.40;;;;;;;;;;6097182;23;20024;-73
2022/10/10 04:11:30;;;;;;;8.15;4.05;;;;;;;;;;6097201;23;20196;-70
2022/10/10 04:14:15;;;;;;;6.65;3.45;;;;;;;;;;6097058;23;20017;-71
2022/10/10 04:17:00;;;;;;;7.68;4.18;;;;;;;;;;6097746;23;20009;-71
2022/10/10 04:19:45;;;;;;;8.60;4.43;;;;;;;;;;6096895;23;20013;-71
2022/10/10 04:22:31;;;;;;;6.70;4.15;;;;;;;;;;6076989;23;20049;-74
2022/10/10 04:25:16;;;;;;;7.82;3.65;;;;;;;;;;6096958;23;20057;-72
2022/10/10 04:28:01;;;;;;;6.57;3.60;;;;;;;;;;6097015;23;20358;-71
2022/10/10 04:30:47;;;;;;;9.38;4.10;;;;;;;;;;6097653;23;20010;-83
2022/10/10 04:33:32;;;;;;;5.85;3.63;;;;;;;;;;6097824;23;20017;-82
2022/10/10 04:36:17;;;;;;;7.35;4.25;;;;;;;;;;6105176;23;20104;-83
2022/10/10 04:39:02;;;;;;;5.68;3.50;;;;;;;;;;6096514;23;20441;-83
2022/10/10 04:41:48;;;;;;;8.60;4.00;;;;;;;;;;6097040;23;20333;-83
2022/10/10 04:44:34;;;;;;;8.13;3.78;;;;;;;;;;6098225;23;20028;-84
2022/10/10 04:47:19;;;;;;;9.68;3.95;;;;;;;;;;6097702;23;20021;-76
2022/10/10 04:50:04;;;;;;;7.30;3.58;;;;;;;;;;6094657;23;20014;-71
2022/10/10 04:52:49;;;;;;;9.10;4.30;;;;;;;;;;6097238;23;20437;-70
2022/10/10 04:55:35;;;;;;;8.35;3.85;;;;;;;;;;6097278;23;20270;-70
2022/10/10 04:58:20;;;;;;;6.35;4.00;;;;;;;;;;6099513;23;20040;-70
2022/10/10 05:01:05;;;;;;;7.55;4.20;;;;;;;;;;6098725;23;20329;-69
2022/10/10 05:03:51;;;;;;;8.82;4.50;;;;;;;;;;6097935;23;20002;-69
2022/10/10 05:06:36;;;;;;;5.45;3.28;;;;;;;;;;6096569;23;20312;-69
2022/10/10 05:09:21;;;;;;;7.20;3.72;;;;;;;;;;6101723;23;20108;-73
2022/10/10 05:12:06;;;;;;;8.07;4.53;;;;;;;;;;6097691;23;20490;-74
2022/10/10 05:14:51;;;;;;;6.18;3.75;;;;;;;;;;6097518;23;20013;-74
2022/10/10 05:17:37;;;;;;;8.18;4.18;;;;;;;;;;6097223;23;20434;-73
2022/10/10 05:20:22;;;;;;;11.13;3.80;;;;;;;;;;6097202;23;20078;-73
2022/10/10 05:23:07;;;;;;;7.78;3.63;;;;;;;;;;6095225;23;20462;-74
2022/10/10 05:25:52;;;;;;;8.82;5.15;;;;;;;;;;6097335;23;20010;-73
2022/10/10 05:28:38;;;;;;;6.50;3.88;;;;;;;;;;6095779;23;20009;-71
2022/10/10 05:31:23;;;;;;;8.18;4.47;;;;;;;;;;6095321;23;20002;-65
2022/10/10 05:34:11;;;;;;;7.22;4.15;;;;;;;;;;6095028;23;20461;-67
2022/10/10 05:36:56;;;;;;;9.32;5.47;;;;;;;;;;6115186;23;20009;-68
2022/10/10 05:39:42;;;;;;;8.57;4.38;;;;;;;;;;6120297;23;20010;-68
2022/10/10 05:42:27;;;;;;;9.35;4.05;;;;;;;;;;6096471;23;20016;-70
2022/10/10 05:45:12;;;;;;;7.68;4.13;;;;;;;;;;6096602;23;20002;-72
2022/10/10 05:47:57;;;;;;;10.25;4.60;;;;;;;;;;6092570;23;20010;-72
2022/10/10 05:50:47;;;;;;;10.40;4.22;;;;;;;;;;6093522;23;20258;-73
2022/10/10 05:53:33;;;;;;;7.43;3.85;;;;;;;;;;6095036;23;20303;-72
2022/10/10 05:56:18;;;;;;;9.45;4.45;;;;;;;;;;6095362;23;20077;-71
2022/10/10 05:59:03;;;;;;;16.85;5.70;;;;;;;;;;6092598;23;20002;-72
2022/10/10 06:01:51;;;;;;;8.88;4.85;;;;;;;;;;6095835;23;20060;-69
2022/10/10 06:04:36;;;;;;;8.40;4.25;;;;;;;;;;6096826;23;20014;-72
2022/10/10 06:07:22;;;;;;;7.63;4.25;;;;;;;;;;6095539;23;20002;-75
2022/10/10 06:10:07;;;;;;;10.68;5.38;;;;;;;;;;6096233;23;20017;-74
2022/10/10 06:12:52;;;;;;;8.35;3.70;;;;;;;;;;6102976;23;20060;-73
2022/10/10 06:15:38;;;;;;;7.28;4.32;;;;;;;;;;6091171;23;20504;-74
2022/10/10 06:18:23;;;;;;;7.22;3.95;;;;;;;;;;6094738;23;20010;-74
2022/10/10 06:21:10;;;;;;;5.43;3.55;;;;;;;;;;6095058;23;20278;-75
2022/10/10 06:23:55;;;;;;;8.93;4.15;;;;;;;;;;6117096;23;20009;-80
2022/10/10 06:26:41;;;;;;;8.60;4.30;;;;;;;;;;6098240;23;20017;-78
2022/10/10 06:29:26;;;;;;;7.07;3.33;;;;;;;;;;6096547;23;20089;-79
2022/10/10 06:32:11;;;;;;;7.03;3.97;;;;;;;;;;6094792;23;20002;-78
2022/10/10 06:34:57;;;;;;;8.57;3.95;;;;;;;;;;6096405;23;20349;-78
2022/10/10 06:37:42;;;;;;;10.00;4.55;;;;;;;;;;6096534;23;20005;-74
2022/10/10 06:40:27;;;;;;;7.70;3.92;;;;;;;;;;6095616;23;20194;-72
2022/10/10 06:43:13;;;;;;;9.40;3.65;;;;;;;;;;6100191;23;20220;-72
2022/10/10 06:45:59;;;;;;;7.10;3.63;;;;;;;;;;6097063;23;20044;-73
2022/10/10 06:48:45;;;;;;;6.07;3.80;;;;;;;;;;6091715;23;20010;-72
2022/10/10 06:51:31;;;;;;;9.85;4.72;;;;;;;;;;6094492;23;20365;-73
2022/10/10 06:54:16;;;;;;;7.40;3.25;;;;;;;;;;6095433;23;20010;-72
2022/10/10 06:57:02;;;;;;;8.50;3.92;;;;;;;;;;6096442;23;20012;-71
2022/10/10 06:59:47;;;;;;;9.52;3.75;;;;;;;;;;6095630;23;20006;-71
2022/10/10 07:02:32;;;;;;;4.78;3.20;;;;;;;;;;6096307;23;20517;-73
2022/10/10 07:05:17;;;;;;;5.88;3.50;;;;;;;;;;6096159;23;20468;-72
2022/10/10 07:08:03;;;;;;;8.15;3.67;;;;;;;;;;6096152;23;20072;-72
2022/10/10 07:10:48;;;;;;;9.18;3.78;;;;;;;;;;6094752;23;20235;-72
2022/10/10 07:13:34;;;;;;;12.75;4.38;;;;;;;;;;6095751;23;20013;-72
2022/10/10 07:16:19;;;;;;;11.50;4.40;;;;;;;;;;6103463;23;20005;-73
2022/10/10 07:19:05;;;;;;;12.05;5.55;;;;;;;;;;6095954;23;20017;-67
2022/10/10 07:21:50;;;;;;;17.33;4.25;;;;;;;;;;6115791;23;19998;-66
2022/10/10 07:24:35;;;;;;;10.98;3.45;;;;;;;;;;6095262;23;20006;-67
2022/10/10 07:27:21;;;;;;;13.90;4.85;;;;;;;;;;6094639;23;20337;-67
2022/10/10 07:30:06;;;;;;;8.02;3.72;;;;;;;;;;6094117;23;20010;-67
2022/10/10 07:32:52;;;;;;;9.10;3.67;;;;;;;;;;6094520;23;20006;-74
2022/10/10 07:35:38;;;;;;;9.20;3.90;;;;;;;;;;6095551;23;20006;-70
2022/10/10 07:38:23;;;;;;;9.07;4.05;;;;;;;;;;6096313;23;20010;-71
2022/10/10 07:41:10;;;;;;;8.25;4.30;;;;;;;;;;6094688;23;20017;-73
2022/10/10 07:43:55;;;;;;;8.00;4.07;;;;;;;;;;6097421;23;20096;-70
2022/10/10 07:46:41;;;;;;;7.72;4.20;;;;;;;;;;6098965;23;20044;-70
2022/10/10 07:49:26;;;;;;;9.55;4.07;;;;;;;;;;6102284;23;20009;-70
2022/10/10 07:52:11;;;;;;;11.23;4.38;;;;;;;;;;6095119;23;20017;-71
2022/10/10 07:54:56;;;;;;;10.60;4.80;;;;;;;;;;6097092;23;20291;-67
2022/10/10 07:57:42;;;;;;;6.40;4.30;;;;;;;;;;6097425;23;20129;-67
2022/10/10 08:00:27;;;;;;;8.45;4.13;;;;;;;;;;6097705;23;20076;-66
2022/10/10 08:03:12;;;;;;;9.52;4.55;;;;;;;;;;6097181;23;20010;-66
2022/10/10 08:06:01;;;;;;;10.38;4.53;;;;;;;;;;6094301;23;20021;-66
2022/10/10 08:08:47;;;;;;;6.68;3.50;;;;;;;;;;6093584;23;20014;-67
2022/10/10 08:11:32;;;;;;;10.40;4.40;;;;;;;;;;6097086;23;20317;-71
2022/10/10 08:14:17;;;;;;;8.45;3.88;;;;;;;;;;6096902;23;20084;-73
2022/10/10 08:17:02;;;;;;;13.40;3.95;;;;;;;;;;6095701;23;20010;-75
2022/10/10 08:19:48;;;;;;;10.45;4.43;;;;;;;;;;6102197;23;20033;-73
2022/10/10 08:22:33;;;;;;;9.35;4.80;;;;;;;;;;6097986;23;20006;-73
2022/10/10 08:25:18;;;;;;;9.32;4.20;;;;;;;;;;6096611;23;20520;-73
2022/10/10 08:28:03;;;;;;;6.32;3.75;;;;;;;;;;6095496;23;20072;-67
2022/10/10 08:30:49;;;;;;;8.43;3.53;;;;;;;;;;6097501;23;20025;-72
2022/10/10 08:33:34;;;;;;;10.27;3.63;;;;;;;;;;6097091;23;20084;-72
2022/10/10 08:36:21;;;;;;;6.03;3.42;;;;;;;;;;6097484;23;20009;-75
2022/10/10 08:39:07;;;;;;;6.80;3.47;;;;;;;;;;6097462;23;20002;-73
2022/10/10 08:41:57;;;;;;;8.07;4.40;;;;;;;;;;6097327;23;20390;-71
2022/10/10 08:44:48;;;;;;;6.00;3.33;;;;;;;;;;6096791;23;20085;-70
2022/10/10 08:47:33;;;;;;;7.07;3.88;;;;;;;;;;6096731;23;20009;-69
2022/10/10 08:50:22;;;;;;;8.02;3.20;;;;;;;;;;6098943;23;20033;-78
2022/10/10 08:53:18;;;;;;;12.30;3.67;;;;;;;;;;6103213;23;20013;-80
2022/10/10 08:56:05;;;;;;;11.00;3.70;;;;;;;;;;6097506;23;20024;-79
2022/10/10 08:58:54;;;;;;;6.45;3.15;;;;;;;;;;6098616;23;20380;-78
2022/10/10 09:01:39;;;;;;;7.85;3.63;;;;;;;;;;6100737;23;20075;-79
2022/10/10 09:04:24;;;;;;;5.63;2.90;;;;;;;;;;6103539;23;20006;-78
2022/10/10 09:07:13;;;;;;;9.48;3.47;;;;;;;;;;6100589;23;20006;-70
2022/10/10 09:10:11;;;;;;;4.93;2.95;;;;;;;;;;6096148;23;20018;-77
2022/10/10 09:13:06;;;;;;;8.40;3.40;;;;;;;;;;6096354;23;20009;-74
2022/10/10 09:16:18;;;;;;;10.73;2.80;;;;;;;;;;6096496;23;20020;-75
2022/10/10 09:19:03;;;;;;;4.25;2.80;;;;;;;;;;6096215;23;20002;-77
2022/10/10 09:21:54;;;;;;;4.78;2.55;;;;;;;;;;6096784;23;20002;-75
2022/10/10 09:24:44;;;;;;;5.95;2.92;;;;;;;;;;6103708;23;20005;-75
2022/10/10 09:27:32;;;;;;;5.95;2.47;;;;;;;;;;6096570;23;20002;-76
2022/10/10 09:30:19;;;;;;;3.97;2.53;;;;;;;;;;6095963;23;20006;-76
2022/10/10 09:33:16;;;;;;;7.72;2.60;;;;;;;;;;6095776;23;20010;-76
2022/10/10 09:36:03;;;;;;;8.32;2.92;;;;;;;;;;6096737;23;20008;-75
2022/10/10 09:38:54;;;;;;;7.57;2.63;;;;;;;;;;6096019;23;20064;-77
2022/10/10 09:41:46;;;;;;;4.80;2.55;;;;;;;;;;6095986;23;20437;-78
2022/10/10 09:44:31;;;;;;;9.82;2.70;;;;;;;;;;6095554;23;20085;-77
2022/10/10 09:47:17;;;;;;;8.00;2.50;;;;;;;;;;6096187;23;20010;-76
2022/10/10 09:50:02;;;;;;;6.07;2.28;;;;;;;;;;6096434;23;20076;-79
2022/10/10 09:52:48;;;;;;;5.78;1.98;;;;;;;;;;6095778;23;20006;-74
2022/10/10 09:55:34;;;;;;;3.95;2.10;;;;;;;;;;6100607;23;20034;-77
2022/10/10 09:58:19;;;;;;;4.60;2.70;;;;;;;;;;6116348;23;20010;-77
2022/10/10 10:01:09;;;;;;;8.85;2.88;;;;;;;;;;6096639;23;20006;-70
2022/10/10 10:03:54;;;;;;;;;;;;;;;;;;6096780;23;20008;-70
2022/10/10 10:06:44;;;;;;;5.40;2.33;;;;;;;;;;6095310;23;19963;-74
2022/10/10 10:09:29;;;;;;;6.10;2.75;;;;;;;;;;6096278;23;20013;-71
2022/10/10 10:12:17;;;;;;;6.25;1.67;;;;;;;;;;6096205;23;20010;-70
2022/10/10 10:15:04;;;;;;;3.88;1.90;;;;;;;;;;6095781;23;20010;-70
2022/10/10 10:18:08;;;;;;;7.22;2.67;;;;;;;;;;6096062;23;20089;-69
2022/10/10 10:21:08;;;;;;;7.25;2.05;;;;;;;;;;6096418;23;20330;-69
2022/10/10 10:23:56;;;;;;;6.20;2.40;;;;;;;;;;6096144;23;20529;-74
2022/10/10 10:26:43;;;;;;;2.65;1.92;;;;;;;;;;6097707;23;20006;-75
2022/10/10 10:29:30;;;;;;;5.90;2.30;;;;;;;;;;6101613;23;20159;-73
2022/10/10 10:32:24;;;;;;;4.38;1.95;;;;;;;;;;6095089;23;20013;-74
2022/10/10 10:35:09;;;;;;;5.60;2.65;;;;;;;;;;6096261;23;20002;-73
2022/10/10 10:38:07;;;;;;;7.40;2.22;;;;;;;;;;6096019;23;20006;-77
2022/10/10 10:40:59;;;;;;;9.88;2.65;;;;;;;;;;6095748;23;20016;-75
2022/10/10 10:43:50;;;;;;;6.72;2.55;;;;;;;;;;6096320;23;20191;-75
2022/10/10 10:46:35;;;;;;;7.30;2.30;;;;;;;;;;6095374;23;20033;-73
2022/10/10 10:49:24;;;;;;;5.18;2.17;;;;;;;;;;6095700;23;20010;-73
2022/10/10 10:52:28;;;;;;;5.13;2.67;;;;;;;;;;6095822;23;20016;-74
2022/10/10 10:55:25;;;;;;;11.95;2.78;;;;;;;;;;6095950;23;20448;-74
2022/10/10 10:58:21;;;;;;;6.40;2.53;;;;;;;;;;6096076;23;20037;-83
2022/10/10 11:01:25;;;;;;;9.20;2.28;;;;;;;;;;6102419;23;20012;-79
2022/10/10 11:04:50;;;;;;;9.10;3.17;;;;;;;;;;6096085;23;20441;-79
2022/10/10 11:07:55;;;;;;;6.60;2.50;;;;;;;;;;5979335;23;20041;-81
2022/10/10 11:10:50;;;;;;;9.45;2.58;;;;;;;;;;5979936;23;20015;-82
2022/10/10 11:13:54;;;;;;;7.55;2.35;;;;;;;;;;6096004;23;20013;-72
2022/10/10 11:16:51;;;;;;;9.05;2.80;;;;;;;;;;6096561;23;20075;-67
2022/10/10 11:19:38;;;;;;;10.75;2.20;;;;;;;;;;6097266;23;20060;-67
2022/10/10 11:22:24;;;;;;;6.05;2.58;;;;;;;;;;6098267;23;20006;-69
2022/10/10 11:25:16;;;;;;;8.93;2.60;;;;;;;;;;6098111;23;20010;-69
2022/10/10 11:28:10;;;;;;;8.10;2.25;;;;;;;;;;6098346;23;20013;-67
2022/10/10 11:31:01;;;;;;;4.80;2.20;;;;;;;;;;6098893;23;20006;-68
2022/10/10 11:33:51;;;;;;;6.85;2.55;;;;;;;;;;6101951;23;20006;-71
2022/10/10 11:36:37;;;;;;;7.45;2.30;;;;;;;;;;6098294;23;20009;-72
2022/10/10 11:39:25;;;;;;;8.05;3.13;;;;;;;;;;6118396;23;20020;-72
2022/10/10 11:42:14;;;;;;;5.82;2.33;;;;;;;;;;6097208;23;20002;-72
2022/10/10 11:45:13;;;;;;;6.10;2.58;;;;;;;;;;6097789;23;20006;-73
2022/10/10 11:48:18;;;;;;;4.40;1.97;;;;;;;;;;6098242;23;20010;-72
2022/10/10 11:51:10;;;;;;;9.60;2.50;;;;;;;;;;6097691;23;20010;-72
2022/10/10 11:53:58;;;;;;;7.80;2.55;;;;;;;;;;6098052;23;20466;-72
2022/10/10 11:56:45;;;;;;;8.68;2.60;;;;;;;;;;6098693;23;20009;-74
2022/10/10 11:59:33;;;;;;;10.90;3.42;;;;;;;;;;6097947;23;20041;-73
2022/10/10 12:02:35;;;;;;;7.25;3.38;;;;;;;;;;6098088;23;20021;-73
2022/10/10 12:05:26;;;;;;;9.55;2.85;;;;;;;;;;6103717;23;20012;-74
2022/10/10 12:08:15;;;;;;;16.35;3.20;;;;;;;;;;6098335;23;20002;-72
2022/10/10 12:11:06;;;;;;;7.45;2.83;;;;;;;;;;6118897;23;20010;-69
2022/10/10 12:13:53;;;;;;;9.50;2.30;;;;;;;;;;6098314;23;20006;-70
2022/10/10 12:16:38;;;;;;;8.05;2.90;;;;;;;;;;6097151;23;20087;-72
2022/10/10 12:19:25;;;;;;;9.82;2.88;;;;;;;;;;6096923;23;20017;-72
2022/10/10 12:22:20;;;;;;;8.55;3.65;;;;;;;;;;6117790;23;20103;-74
2022/10/10 12:25:24;;;;;;;6.13;2.67;;;;;;;;;;6118076;23;20060;-72
2022/10/10 12:28:12;;;;;;;9.10;2.78;;;;;;;;;;6096752;23;20006;-81
2022/10/10 12:31:03;;;;;;;14.32;3.42;;;;;;;;;;6096331;23;20006;-70
2022/10/10 12:33:49;;;;;;;10.57;3.05;;;;;;;;;;6095699;23;20428;-71
2022/10/10 12:36:41;;;;;;;12.57;2.80;;;;;;;;;;6103660;23;20214;-71
2022/10/10 12:39:30;;;;;;;10.27;3.53;;;;;;;;;;6095467;23;19998;-70
2022/10/10 12:42:25;;;;;;;10.60;3.55;;;;;;;;;;6095444;23;20061;-72
2022/10/10 12:45:29;;;;;;;8.10;2.83;;;;;;;;;;6095198;23;20063;-72
2022/10/10 12:48:18;;;;;;;12.40;3.08;;;;;;;;;;6097052;23;20002;-82
2022/10/10 12:51:04;;;;;;;10.43;2.70;;;;;;;;;;6095652;23;20485;-71
2022/10/10 12:53:52;;;;;;;15.10;2.88;;;;;;;;;;6095305;23;20052;-71
2022/10/10 12:56:39;;;;;;;11.98;3.53;;;;;;;;;;6093206;23;20014;-71
2022/10/10 12:59:24;;;;;;;9.43;3.35;;;;;;;;;;6095428;23;20029;-71
2022/10/10 13:02:14;;;;;;;12.15;3.70;;;;;;;;;;6096724;23;20032;-71
2022/10/10 13:05:00;;;;;;;16.30;4.22;;;;;;;;;;6097224;23;20354;-70
2022/10/10 13:07:46;;;;;;;12.07;3.58;;;;;;;;;;6100451;23;20289;-68
2022/10/10 13:10:31;;;;;;;9.00;3.65;;;;;;;;;;6097424;23;20002;-69
2022/10/10 13:13:18;;;;;;;10.38;3.25;;;;;;;;;;6096134;23;20361;-69
2022/10/10 13:16:05;;;;;;;10.80;4.57;;;;;;;;;;6116969;23;20113;-68
2022/10/10 13:18:51;;;;;;;13.00;3.10;;;;;;;;;;6096383;23;20017;-69
2022/10/10 13:21:37;;;;;;;9.77;3.25;;;;;;;;;;6076877;23;20009;-68
2022/10/10 13:24:25;;;;;;;11.27;3.00;;;;;;;;;;6097262;23;20360;-71
2022/10/10 13:27:15;;;;;;;10.20;3.03;;;;;;;;;;6116825;23;20010;-75
2022/10/10 13:30:01;;;;;;;10.20;3.28;;;;;;;;;;6094443;23;20438;-75
2022/10/10 13:32:46;;;;;;;8.35;2.97;;;;;;;;;;6094229;23;20014;-74
2022/10/10 13:35:31;;;;;;;7.10;2.95;;;;;;;;;;6095522;23;20493;-74
2022/10/10 13:38:18;;;;;;;9.13;2.60;;;;;;;;;;6095753;23;20141;-75
2022/10/10 13:41:04;;;;;;;14.93;3.83;;;;;;;;;;6104106;23;20036;-73
2022/10/10 13:43:49;;;;;;;10.70;3.35;;;;;;;;;;6096789;23;20030;-79
2022/10/10 13:46:35;;;;;;;10.95;3.17;;;;;;;;;;6097736;23;20009;-80
2022/10/10 13:49:21;;;;;;;9.18;3.53;;;;;;;;;;6096912;23;20089;-80
2022/10/10 13:52:22;;;;;;;14.13;3.17;;;;;;;;;;6098119;23;20010;-78
2022/10/10 13:55:25;;;;;;;9.68;3.67;;;;;;;;;;6098212;23;20075;-82
2022/10/10 13:58:10;;;;;;;11.73;4.43;;;;;;;;;;6104143;23;20053;-81
2022/10/10 14:00:57;;;;;;;13.27;4.03;;;;;;;;;;6094706;23;20075;-74
2022/10/10 14:03:44;;;;;;;10.38;3.13;;;;;;;;;;6116939;23;20047;-73
2022/10/10 14:06:30;;;;;;;13.02;3.72;;;;;;;;;;6096976;23;20388;-73
2022/10/10 14:09:27;;;;;;;18.67;3.78;;;;;;;;;;6096231;23;20009;-73
2022/10/10 14:12:18;;;;;;;11.85;3.83;;;;;;;;;;6101938;23;19998;-75
2022/10/10 14:15:03;;;;;;;10.68;3.40;;;;;;;;;;6095480;23;20010;-76
2022/10/10 14:17:49;;;;;;;10.80;4.57;;;;;;;;;;6095572;23;20067;-77
2022/10/10 14:20:34;;;;;;;8.45;3.42;;;;;;;;;;6095926;23;20386;-74
2022/10/10 14:23:19;;;;;;;11.85;4.47;;;;;;;;;;6096024;23;20012;-72
2022/10/10 14:26:06;;;;;;;12.63;4.70;;;;;;;;;;6096144;23;20314;-74
2022/10/10 14:28:51;;;;;;;11.32;4.10;;;;;;;;;;6095686;23;20082;-73
2022/10/10 14:31:37;;;;;;;10.95;4.35;;;;;;;;;;6095917;23;20068;-69
2022/10/10 14:34:22;;;;;;;11.40;3.90;;;;;;;;;;6095762;23;20025;-72
2022/10/10 14:37:26;;;;;;;8.88;4.25;;;;;;;;;;6095345;23;20006;-73
2022/10/10 14:40:19;;;;;;;10.27;3.33;;;;;;;;;;6115435;23;20037;-67
2022/10/10 14:43:04;;;;;;;11.52;3.42;;;;;;;;;;6097645;23;20231;-67
2022/10/10 14:45:51;;;;;;;10.63;3.58;;;;;;;;;;6099289;23;20009;-68
2022/10/10 14:48:36;;;;;;;11.70;3.30;;;;;;;;;;6095961;23;20006;-67
2022/10/10 14:51:21;;;;;;;12.32;3.40;;;;;;;;;;6095332;23;20359;-67
2022/10/10 14:54:06;;;;;;;11.90;4.07;;;;;;;;;;6096196;23;20081;-69
2022/10/10 14:56:52;;;;;;;10.50;3.58;;;;;;;;;;6095351;23;20341;-75
2022/10/10 14:59:38;;;;;;;12.85;3.35;;;;;;;;;;6097258;23;20128;-74
2022/10/10 15:02:23;;;;;;;10.68;3.42;;;;;;;;;;6096506;23;20445;-74
2022/10/10 15:05:09;;;;;;;12.70;4.03;;;;;;;;;;6095940;23;20085;-73
2022/10/10 15:07:54;;;;;;;13.90;2.65;;;;;;;;;;6095483;23;20017;-74
2022/10/10 15:10:40;;;;;;;10.43;3.70;;;;;;;;;;6096487;23;20022;-77
2022/10/10 15:13:25;;;;;;;13.90;5.07;;;;;;;;;;6115290;23;20006;-69
2022/10/10 15:16:10;;;;;;;16.48;5.90;;;;;;;;;;6102146;23;20193;-77
2022/10/10 15:18:56;;;;;;;14.93;4.30;;;;;;;;;;6095757;23;20033;-76
2022/10/10 15:21:41;;;;;;;15.05;4.43;;;;;;;;;;6095580;23;20006;-77
2022/10/10 15:24:26;;;;;;;15.57;4.45;;;;;;;;;;6096420;23;20017;-75
2022/10/10 15:27:11;;;;;;;16.83;4.72;;;;;;;;;;6094441;23;20260;-75
2022/10/10 15:29:57;;;;;;;14.20;4.38;;;;;;;;;;6115654;23;20013;-76
2022/10/10 15:32:43;;;;;;;12.15;3.72;;;;;;;;;;6115182;23;20085;-77
2022/10/10 15:35:28;;;;;;;12.32;3.70;;;;;;;;;;6095593;23;20034;-73
2022/10/10 15:38:13;;;;;;;13.73;3.80;;;;;;;;;;6095558;23;20493;-75
2022/10/10 15:41:03;;;;;;;12.98;3.40;;;;;;;;;;6095190;23;20089;-76
2022/10/10 15:43:55;;;;;;;8.98;3.25;;;;;;;;;;6095974;23;20014;-76
2022/10/10 15:46:41;;;;;;;11.60;3.22;;;;;;;;;;6095956;23;20045;-75
2022/10/10 15:49:27;;;;;;;13.48;4.00;;;;;;;;;;6120682;23;20045;-75
2022/10/10 15:52:12;;;;;;;12.23;4.28;;;;;;;;;;6095215;23;20326;-72
2022/10/10 15:54:58;;;;;;;10.93;3.55;;;;;;;;;;6114787;23;20330;-71
2022/10/10 15:57:43;;;;;;;15.32;5.03;;;;;;;;;;6092378;23;20010;-74
2022/10/10 16:00:28;;;;;;;10.00;4.03;;;;;;;;;;6095088;23;20423;-71
2022/10/10 16:03:13;;;;;;;14.57;4.28;;;;;;;;;;6095211;23;20159;-70
2022/10/10 16:06:00;;;;;;;18.40;4.05;;;;;;;;;;6094913;23;20010;-74
2022/10/10 16:08:47;;;;;;;11.02;3.75;;;;;;;;;;6096065;23;20446;-73
2022/10/10 16:11:35;;;;;;;9.02;3.35;;;;;;;;;;6096846;23;20112;-67
2022/10/10 16:14:20;;;;;;;12.98;3.95;;;;;;;;;;6097084;23;20016;-67
2022/10/10 16:17:05;;;;;;;10.73;4.22;;;;;;;;;;6097338;23;20002;-67
2022/10/10 16:19:51;;;;;;;14.75;3.85;;;;;;;;;;6101693;23;20197;-68
2022/10/10 16:22:36;;;;;;;13.57;4.88;;;;;;;;;;6097873;23;20342;-68
2022/10/10 16:25:21;;;;;;;12.52;5.05;;;;;;;;;;6076188;23;20010;-70
2022/10/10 16:28:06;;;;;;;12.10;4.05;;;;;;;;;;6097218;23;20006;-76
2022/10/10 16:30:51;;;;;;;16.80;4.25;;;;;;;;;;6096649;23;20013;-73
2022/10/10 16:33:37;;;;;;;12.75;3.80;;;;;;;;;;6096786;23;20449;-73
2022/10/10 16:36:24;;;;;;;13.10;4.30;;;;;;;;;;6097015;23;20060;-75
2022/10/10 16:39:11;;;;;;;16.17;4.40;;;;;;;;;;6095863;23;20433;-74
2022/10/10 16:41:56;;;;;;;10.68;4.18;;;;;;;;;;6096742;23;20429;-73